Tai Shan, China
Current Conditions -  °F | °C
As of 11:00 PM on Thursday 23 Oct 2014 (Local Time) from ZSJN Reporting Station
Haze Haze  
Wind Chill: 64°   Ceiling: Unl
Heat Index: 64°   Visibility: 2.5mi
Dew Point: 54°   Wind: 7mph
Humidity: 68%   Direction: 180°S
Pressure: 29.91"   Gusts: NA
Location:  36.25°N, 117.1°E
Report Text: ZSJN 231500Z 18003MPS 4000 HZ NSC 18/12 Q1013 NOSIG
Loading
Personal Weather Stations






























Interactive Weather Map
Tropical Storm Tracking
New forecast layout! Learn more

10-Day Weather Forecast

Advertisements
Track Severe Weather on mobile